Time;durP1;ratioP1;P1;durP2;ratioP2;P2;SDS_P1;SDS_P2;PMS_P1;PMS_P2;Temp;Humidity;BMP_temperature;BMP_pressure;BME280_temperature;BME280_humidity;BME280_pressure;Samples;Min_cycle;Max_cycle;Signal;HPM_P1;HPM_P2
2023/11/15 00:01:33;;;;;;;11.90;2.63;;;;;;;9.43;100.00;99979.00;6254380;28;20469;-79
2023/11/15 00:04:36;;;;;;;9.43;3.10;;;;;;;9.30;100.00;99978.88;6253846;28;20045;-78
2023/11/15 00:07:38;;;;;;;8.73;2.15;;;;;;;9.38;100.00;99987.13;6253622;28;20056;-78
2023/11/15 00:10:40;;;;;;;11.75;2.75;;;;;;;9.38;100.00;99987.13;6245433;28;20053;-78
2023/11/15 00:13:43;;;;;;;14.10;2.50;;;;;;;9.41;100.00;99994.84;6253714;28;20056;-78
2023/11/15 00:16:44;;;;;;;8.43;2.53;;;;;;;9.39;100.00;100001.94;6253503;28;20057;-78
2023/11/15 00:19:46;;;;;;;6.60;2.30;;;;;;;9.29;100.00;100011.28;6253909;28;20187;-78
2023/11/15 00:22:47;;;;;;;7.85;2.30;;;;;;;9.35;100.00;100013.53;6253374;28;20453;-77
2023/11/15 00:25:49;;;;;;;6.00;2.22;;;;;;;9.28;100.00;100014.84;6252876;28;20060;-77
2023/11/15 00:28:52;;;;;;;12.02;2.38;;;;;;;9.28;100.00;100007.00;6252794;28;20057;-78
2023/11/15 00:31:54;;;;;;;11.63;2.58;;;;;;;9.25;100.00;100010.63;6253366;28;20135;-78
2023/11/15 00:34:55;;;;;;;8.93;1.85;;;;;;;9.27;100.00;100021.03;6253398;28;20055;-78
2023/11/15 00:37:57;;;;;;;5.28;3.58;;;;;;;9.30;100.00;100032.16;6253685;28;20050;-78
2023/11/15 00:40:58;;;;;;;9.63;2.30;;;;;;;9.35;100.00;100037.97;6253182;28;20492;-77
2023/11/15 00:44:03;;;;;;;3.33;1.83;;;;;;;9.36;100.00;100049.34;6253284;28;20052;-79
2023/11/15 00:47:05;;;;;;;10.38;1.65;;;;;;;9.34;100.00;100057.28;6253210;28;20053;-78
2023/11/15 00:50:08;;;;;;;8.52;2.20;;;;;;;9.22;100.00;100060.63;6252980;28;20437;-78
2023/11/15 00:53:09;;;;;;;8.30;1.92;;;;;;;9.25;100.00;100070.09;6252967;28;20045;-77
2023/11/15 00:56:11;;;;;;;13.13;2.15;;;;;;;9.33;100.00;100073.94;6252869;28;20346;-78
2023/11/15 00:59:14;;;;;;;5.20;1.67;;;;;;;9.33;100.00;100094.09;6252883;28;20049;-77
2023/11/15 01:02:16;;;;;;;3.88;1.90;;;;;;;9.30;100.00;100096.88;6252077;28;20353;-78
2023/11/15 01:05:18;;;;;;;11.80;1.90;;;;;;;9.28;100.00;100115.31;6252453;28;20259;-77
2023/11/15 01:08:19;;;;;;;6.13;1.83;;;;;;;9.24;100.00;100113.81;6252155;28;20049;-77
2023/11/15 01:11:23;;;;;;;9.65;1.88;;;;;;;9.18;100.00;100124.66;6251821;28;20370;-78
2023/11/15 01:14:26;;;;;;;8.82;1.90;;;;;;;9.22;100.00;100131.44;6261552;28;20051;-78
2023/11/15 01:17:28;;;;;;;4.13;1.83;;;;;;;9.16;100.00;100139.63;6254015;28;20118;-77
2023/11/15 01:20:29;;;;;;;6.38;1.67;;;;;;;9.16;100.00;100131.75;6259234;28;20088;-77
2023/11/15 01:23:31;;;;;;;6.43;1.77;;;;;;;9.10;100.00;100140.81;6252237;28;20094;-77
2023/11/15 01:26:32;;;;;;;5.30;1.45;;;;;;;9.12;100.00;100149.44;6252324;28;20132;-78
2023/11/15 01:29:35;;;;;;;2.22;1.40;;;;;;;9.11;100.00;100160.00;6253775;28;20060;-78
2023/11/15 01:32:36;;;;;;;3.80;1.45;;;;;;;9.10;100.00;100167.03;6251792;28;20057;-78
2023/11/15 01:35:38;;;;;;;3.92;1.92;;;;;;;9.10;100.00;100182.75;6251931;28;20056;-76
2023/11/15 01:38:41;;;;;;;4.63;1.60;;;;;;;9.09;100.00;100188.09;6251780;28;20046;-77
2023/11/15 01:41:48;;;;;;;4.65;1.80;;;;;;;9.09;100.00;100188.94;6251454;28;20049;-77
2023/11/15 01:44:50;;;;;;;4.85;1.80;;;;;;;9.12;100.00;100201.00;6251884;28;20049;-76
2023/11/15 01:47:52;;;;;;;6.50;3.08;;;;;;;9.08;100.00;100200.38;6259052;28;20045;-76
2023/11/15 01:50:53;;;;;;;5.10;1.38;;;;;;;9.05;100.00;100218.88;6251575;28;20060;-76
2023/11/15 01:53:56;;;;;;;6.85;1.83;;;;;;;9.01;100.00;100222.59;6251313;28;20049;-75
2023/11/15 01:56:58;;;;;;;3.45;1.60;;;;;;;8.97;100.00;100228.94;6251652;28;20053;-77
2023/11/15 02:00:00;;;;;;;2.72;1.33;;;;;;;8.95;100.00;100225.56;6251184;28;20446;-77
2023/11/15 02:03:02;;;;;;;4.28;1.92;;;;;;;8.84;100.00;100231.38;6251392;28;20053;-78
2023/11/15 02:06:06;;;;;;;2.85;1.50;;;;;;;8.96;100.00;100239.50;6251236;28;20057;-78
2023/11/15 02:09:10;;;;;;;5.78;1.63;;;;;;;8.98;100.00;100246.34;6251229;28;20053;-79
2023/11/15 02:12:11;;;;;;;2.15;1.42;;;;;;;8.92;100.00;100243.22;6250865;28;20057;-79
2023/11/15 02:15:15;;;;;;;8.00;1.63;;;;;;;8.83;100.00;100248.03;6253984;28;20198;-78
2023/11/15 02:18:17;;;;;;;2.70;2.00;;;;;;;8.73;100.00;100256.47;6254169;28;20127;-78
2023/11/15 02:21:19;;;;;;;3.22;2.22;;;;;;;8.78;100.00;100257.91;6250961;28;20077;-77
2023/11/15 02:24:21;;;;;;;4.72;2.05;;;;;;;8.72;100.00;100270.47;6250797;28;20350;-78
2023/11/15 02:27:23;;;;;;;3.75;1.73;;;;;;;8.74;100.00;100274.72;6250867;28;20056;-78
2023/11/15 02:30:24;;;;;;;4.80;1.85;;;;;;;8.75;100.00;100286.88;6250607;28;20350;-78
2023/11/15 02:33:26;;;;;;;8.70;2.22;;;;;;;8.76;100.00;100285.09;6250508;28;20456;-78
2023/11/15 02:36:28;;;;;;;2.63;1.33;;;;;;;8.76;100.00;100290.34;6250728;28;20053;-79
2023/11/15 02:39:31;;;;;;;2.58;1.88;;;;;;;8.78;100.00;100291.13;6250607;28;20057;-78
2023/11/15 02:42:32;;;;;;;2.97;1.42;;;;;;;8.84;100.00;100303.88;6250370;28;20076;-79
2023/11/15 02:45:34;;;;;;;2.28;1.60;;;;;;;8.74;100.00;100313.16;6250710;28;20049;-78
2023/11/15 02:48:35;;;;;;;3.13;1.50;;;;;;;8.70;100.00;100316.88;6250593;28;20065;-77
2023/11/15 02:51:37;;;;;;;4.07;1.30;;;;;;;8.57;100.00;100329.75;6250599;28;20053;-77
2023/11/15 02:54:40;;;;;;;1.42;1.27;;;;;;;8.62;100.00;100325.13;6250350;28;20418;-78
2023/11/15 02:57:42;;;;;;;2.58;1.63;;;;;;;8.64;100.00;100326.75;6250714;28;20053;-78
2023/11/15 03:00:44;;;;;;;3.05;1.20;;;;;;;8.66;100.00;100331.91;6250272;28;20053;-78
2023/11/15 03:03:46;;;;;;;2.25;1.33;;;;;;;8.66;100.00;100336.28;6250599;28;20049;-78
2023/11/15 03:06:47;;;;;;;2.45;1.02;;;;;;;8.60;100.00;100340.94;6250141;28;20055;-78
2023/11/15 03:09:50;;;;;;;1.70;1.17;;;;;;;8.59;100.00;100347.09;6250220;28;20473;-78
2023/11/15 03:12:51;;;;;;;2.17;1.42;;;;;;;8.66;100.00;100349.38;6250065;28;20057;-78
2023/11/15 03:15:53;;;;;;;2.10;1.48;;;;;;;8.58;100.00;100358.50;6250242;28;20136;-78
2023/11/15 03:19:16;;;;;;;3.38;1.77;;;;;;;8.50;100.00;100370.28;6249956;28;20127;-77
2023/11/15 03:22:18;;;;;;;1.92;1.27;;;;;;;8.42;100.00;100373.28;6222052;28;20056;-72
2023/11/15 03:25:21;;;;;;;2.22;1.48;;;;;;;8.39;100.00;100381.28;6224534;28;20049;-72
2023/11/15 03:28:22;;;;;;;6.25;1.52;;;;;;;8.39;100.00;100374.28;6224682;28;20085;-72
2023/11/15 03:31:24;;;;;;;6.20;1.33;;;;;;;8.34;100.00;100383.25;6223625;28;20061;-72
2023/11/15 03:34:26;;;;;;;6.15;1.35;;;;;;;8.36;100.00;100384.94;6224300;28;20042;-72
2023/11/15 03:37:27;;;;;;;1.58;1.40;;;;;;;8.38;100.00;100393.53;6224187;28;20049;-72
2023/11/15 03:40:30;;;;;;;1.80;1.25;;;;;;;8.42;100.00;100399.47;6224216;28;20065;-72
2023/11/15 03:43:32;;;;;;;3.47;1.60;;;;;;;8.46;100.00;100408.03;6224935;28;20465;-72
2023/11/15 03:46:33;;;;;;;3.88;1.80;;;;;;;8.44;100.00;100408.09;6228503;28;20049;-72
2023/11/15 03:49:35;;;;;;;9.02;1.70;;;;;;;8.47;100.00;100421.03;6228283;28;20053;-72
2023/11/15 03:52:36;;;;;;;3.80;1.80;;;;;;;8.44;100.00;100417.72;6228274;28;20058;-72
2023/11/15 03:55:39;;;;;;;4.05;1.50;;;;;;;8.41;100.00;100425.75;6228230;28;20049;-72
2023/11/15 03:58:42;;;;;;;3.08;1.60;;;;;;;8.38;100.00;100424.13;6228201;28;20057;-72
2023/11/15 04:01:43;;;;;;;7.05;1.75;;;;;;;8.42;100.00;100436.13;6227816;28;20378;-72
2023/11/15 04:04:45;;;;;;;3.20;1.50;;;;;;;8.44;100.00;100433.44;6228119;28;20046;-72
2023/11/15 04:07:46;;;;;;;2.88;1.83;;;;;;;8.44;100.00;100442.13;6227770;28;20049;-72
2023/11/15 04:10:50;;;;;;;3.45;1.80;;;;;;;8.54;100.00;100446.00;6227794;28;20046;-72
2023/11/15 04:13:51;;;;;;;5.03;2.10;;;;;;;8.54;100.00;100447.75;6227817;28;20057;-72
2023/11/15 04:16:52;;;;;;;5.28;1.77;;;;;;;8.51;100.00;100445.31;6227801;28;20457;-72
2023/11/15 04:19:54;;;;;;;3.38;1.90;;;;;;;8.48;100.00;100458.53;6200556;28;1057929;-72
2023/11/15 04:22:57;;;;;;;6.88;2.45;;;;;;;8.52;100.00;100455.69;6245103;28;20054;-72
2023/11/15 04:26:00;;;;;;;6.10;2.15;;;;;;;8.48;100.00;100456.78;6244852;28;20053;-72
2023/11/15 04:29:01;;;;;;;3.85;2.67;;;;;;;8.52;100.00;100460.09;6228269;28;20050;-72
2023/11/15 04:32:03;;;;;;;4.07;2.45;;;;;;;8.50;100.00;100475.03;6243579;28;20134;-73
2023/11/15 04:35:06;;;;;;;5.78;2.42;;;;;;;8.37;100.00;100466.94;6249795;28;20366;-73
2023/11/15 04:38:09;;;;;;;5.47;2.65;;;;;;;8.42;100.00;100475.41;6227840;28;20332;-72
2023/11/15 04:41:11;;;;;;;10.95;2.28;;;;;;;8.39;100.00;100488.66;6228169;28;20153;-72
2023/11/15 04:44:13;;;;;;;8.48;2.67;;;;;;;8.42;100.00;100483.28;6235859;28;20045;-73
2023/11/15 04:47:14;;;;;;;8.93;3.13;;;;;;;8.34;100.00;100486.22;6234259;28;20050;-72
2023/11/15 04:50:16;;;;;;;6.88;2.58;;;;;;;8.30;100.00;100489.91;6227843;28;20045;-72
2023/11/15 04:53:17;;;;;;;5.18;2.70;;;;;;;8.33;100.00;100491.53;6228308;28;20571;-72
2023/11/15 04:56:22;;;;;;;4.30;2.72;;;;;;;8.34;100.00;100495.84;6227277;28;20046;-73
2023/11/15 04:59:24;;;;;;;4.95;2.75;;;;;;;8.28;100.00;100498.78;6228262;28;20073;-72
2023/11/15 05:02:27;;;;;;;3.70;2.10;;;;;;;8.21;100.00;100499.97;6228002;28;20047;-72
2023/11/15 05:05:29;;;;;;;5.10;2.75;;;;;;;8.14;100.00;100502.03;6228160;28;20457;-72
2023/11/15 05:08:30;;;;;;;8.25;2.85;;;;;;;8.12;100.00;100504.72;6227882;28;20089;-72
2023/11/15 05:11:33;;;;;;;6.72;2.55;;;;;;;8.06;100.00;100514.63;6240026;28;20059;-72
2023/11/15 05:14:36;;;;;;;5.32;2.67;;;;;;;8.02;100.00;100524.38;6250763;28;20057;-73
2023/11/15 05:17:37;;;;;;;3.50;2.17;;;;;;;7.98;100.00;100530.69;6245057;28;20050;-72
2023/11/15 05:20:39;;;;;;;4.65;2.20;;;;;;;8.02;100.00;100531.41;6251295;28;20057;-72
2023/11/15 05:23:40;;;;;;;3.83;2.40;;;;;;;7.94;100.00;100533.50;6252075;28;20057;-72
2023/11/15 05:26:43;;;;;;;5.15;2.78;;;;;;;7.92;100.00;100540.59;6252329;28;20050;-72
2023/11/15 05:29:45;;;;;;;4.68;2.47;;;;;;;7.99;100.00;100540.22;6251947;28;20080;-72
2023/11/15 05:32:47;;;;;;;4.28;2.28;;;;;;;7.82;100.00;100548.84;6251959;28;20053;-72
2023/11/15 05:35:48;;;;;;;3.80;2.22;;;;;;;7.83;100.00;100552.31;6251945;28;20045;-72
2023/11/15 05:38:49;;;;;;;5.40;2.78;;;;;;;7.91;100.00;100560.69;6251841;28;20060;-72
2023/11/15 05:41:52;;;;;;;5.05;2.63;;;;;;;7.82;100.00;100567.16;6251578;28;20054;-72
2023/11/15 05:44:53;;;;;;;5.13;3.08;;;;;;;7.79;100.00;100569.91;6251952;28;20056;-73
2023/11/15 05:47:55;;;;;;;8.05;3.10;;;;;;;7.82;100.00;100585.47;6251674;28;20469;-72
2023/11/15 05:50:56;;;;;;;4.55;2.42;;;;;;;7.83;100.00;100586.31;6251398;28;20053;-72
2023/11/15 05:53:58;;;;;;;4.93;2.65;;;;;;;7.82;100.00;100589.88;6251475;28;20042;-72
2023/11/15 05:57:01;;;;;;;7.70;2.65;;;;;;;7.86;100.00;100592.28;6251504;28;20346;-72
2023/11/15 06:00:10;;;;;;;3.65;2.38;;;;;;;7.75;100.00;100586.66;6251495;28;20053;-72
2023/11/15 06:03:12;;;;;;;6.32;2.28;;;;;;;7.78;100.00;100602.22;6251229;28;20449;-72
2023/11/15 06:06:13;;;;;;;4.95;2.47;;;;;;;7.81;100.00;100601.22;6251046;28;20045;-73
2023/11/15 06:09:17;;;;;;;3.80;2.30;;;;;;;7.74;100.00;100591.97;6250885;28;20076;-72
2023/11/15 06:12:20;;;;;;;4.78;2.40;;;;;;;7.71;100.00;100597.31;6250941;28;20045;-72
2023/11/15 06:15:22;;;;;;;2.65;1.90;;;;;;;7.67;100.00;100601.84;6250928;28;20046;-72
2023/11/15 06:18:23;;;;;;;6.55;2.10;;;;;;;7.68;100.00;100602.72;6251248;28;20045;-72
2023/11/15 06:21:26;;;;;;;7.20;2.33;;;;;;;7.59;100.00;100604.81;6239851;28;20061;-72
2023/11/15 06:24:28;;;;;;;6.30;2.00;;;;;;;7.71;100.00;100613.88;6248321;28;20049;-72
2023/11/15 06:27:33;;;;;;;6.95;2.55;;;;;;;7.76;100.00;100624.97;6242505;28;20388;-72
2023/11/15 06:30:34;;;;;;;3.58;2.20;;;;;;;7.74;100.00;100625.97;6250900;28;20053;-72
2023/11/15 06:33:36;;;;;;;3.70;1.77;;;;;;;7.80;100.00;100630.94;6250730;28;20049;-72
2023/11/15 06:36:39;;;;;;;3.78;2.08;;;;;;;7.81;100.00;100640.47;6250381;28;20422;-72
2023/11/15 06:39:41;;;;;;;4.32;2.55;;;;;;;7.89;100.00;100639.22;6250666;28;20123;-72
2023/11/15 06:42:44;;;;;;;7.85;2.72;;;;;;;7.95;100.00;100648.59;6242284;28;20076;-72
2023/11/15 06:45:45;;;;;;;3.28;2.30;;;;;;;7.96;100.00;100646.81;6250755;28;20045;-72
2023/11/15 06:48:47;;;;;;;9.50;2.45;;;;;;;8.00;100.00;100654.47;6250445;28;20056;-72
2023/11/15 06:51:51;;;;;;;3.53;2.30;;;;;;;8.00;100.00;100657.09;6250374;28;20060;-72
2023/11/15 06:54:53;;;;;;;5.30;2.60;;;;;;;7.98;100.00;100660.66;6250375;28;20045;-72
2023/11/15 06:57:55;;;;;;;5.82;2.40;;;;;;;7.96;100.00;100667.75;6250149;28;20053;-72
2023/11/15 07:00:57;;;;;;;6.68;2.72;;;;;;;8.03;100.00;100669.16;6225469;28;20077;-72
2023/11/15 07:03:58;;;;;;;4.10;2.60;;;;;;;8.05;100.00;100675.19;6231278;28;20056;-72
2023/11/15 07:07:00;;;;;;;4.55;2.67;;;;;;;8.07;100.00;100676.81;6241650;28;20366;-73
2023/11/15 07:10:05;;;;;;;7.82;2.80;;;;;;;8.10;100.00;100678.47;6250014;28;20064;-72
2023/11/15 07:13:08;;;;;;;6.75;3.00;;;;;;;8.12;100.00;100684.47;6236562;28;20046;-72
2023/11/15 07:16:11;;;;;;;6.55;2.72;;;;;;;8.14;100.00;100699.19;6227721;28;20046;-72
2023/11/15 07:19:12;;;;;;;6.53;2.95;;;;;;;8.19;100.00;100699.00;6247363;28;20052;-72
2023/11/15 07:22:14;;;;;;;5.35;2.83;;;;;;;8.11;100.00;100714.19;6242201;28;20054;-75
2023/11/15 07:25:18;;;;;;;5.45;3.00;;;;;;;8.20;100.00;100718.16;6229969;28;20434;-75
2023/11/15 07:28:21;;;;;;;9.48;3.30;;;;;;;8.28;100.00;100716.06;6230286;28;20460;-76
2023/11/15 07:31:22;;;;;;;7.65;2.88;;;;;;;8.27;100.00;100724.84;6230339;28;20053;-75
2023/11/15 07:34:24;;;;;;;5.03;2.85;;;;;;;8.24;100.00;100727.59;6229942;28;20049;-75
2023/11/15 07:37:25;;;;;;;6.07;2.75;;;;;;;8.22;100.00;100725.03;6229846;28;20041;-75
2023/11/15 07:40:27;;;;;;;8.68;2.85;;;;;;;8.14;100.00;100735.00;6229365;28;20347;-73
2023/11/15 07:43:30;;;;;;;7.35;3.08;;;;;;;8.15;100.00;100731.44;6229326;28;20060;-75
2023/11/15 07:46:32;;;;;;;7.03;3.83;;;;;;;8.14;100.00;100729.75;6229171;28;20053;-75
2023/11/15 07:49:33;;;;;;;8.15;4.03;;;;;;;8.24;100.00;100738.06;6229185;28;20053;-75
2023/11/15 07:52:36;;;;;;;10.90;4.30;;;;;;;8.29;100.00;100741.31;6229257;28;20050;-75
2023/11/15 07:55:38;;;;;;;8.82;5.00;;;;;;;8.25;100.00;100744.97;6229160;28;20050;-75
2023/11/15 07:58:40;;;;;;;9.75;3.70;;;;;;;8.21;100.00;100748.66;6229512;28;20045;-75
2023/11/15 08:01:42;;;;;;;14.55;3.67;;;;;;;8.25;100.00;100748.44;6229278;28;20359;-75
2023/11/15 08:04:44;;;;;;;11.10;3.88;;;;;;;8.23;100.00;100750.28;6229850;28;20050;-76
2023/11/15 08:07:47;;;;;;;7.97;3.75;;;;;;;8.29;100.00;100750.03;6229308;28;20054;-75
2023/11/15 08:10:50;;;;;;;4.78;3.25;;;;;;;8.21;100.00;100746.03;6229544;28;20050;-76
2023/11/15 08:13:54;;;;;;;13.63;3.63;;;;;;;8.27;100.00;100754.47;6229313;28;20273;-76
2023/11/15 08:16:56;;;;;;;8.02;4.32;;;;;;;8.23;100.00;100745.06;6229141;28;20057;-76
2023/11/15 08:19:58;;;;;;;15.10;4.13;;;;;;;8.23;100.00;100750.28;6223717;28;20437;-74
2023/11/15 08:22:59;;;;;;;7.68;3.60;;;;;;;8.30;100.00;100754.31;6233580;28;20338;-74
2023/11/15 08:26:02;;;;;;;14.52;5.05;;;;;;;8.33;100.00;100762.06;6240165;28;20041;-75
2023/11/15 08:29:05;;;;;;;10.85;4.57;;;;;;;8.37;100.00;100752.34;6240193;28;20099;-75
2023/11/15 08:32:07;;;;;;;7.88;3.85;;;;;;;8.32;100.00;100752.50;6228568;28;20358;-75
2023/11/15 08:35:09;;;;;;;15.02;4.30;;;;;;;8.40;100.00;100754.81;6228686;28;20052;-76
2023/11/15 08:38:12;;;;;;;10.90;4.38;;;;;;;8.45;100.00;100752.88;6228759;28;20056;-74
2023/11/15 08:41:16;;;;;;;13.57;5.38;;;;;;;8.50;100.00;100756.13;6228604;28;20050;-74
2023/11/15 08:44:18;;;;;;;12.52;4.53;;;;;;;8.53;100.00;100765.59;6228664;28;20103;-76
2023/11/15 08:47:21;;;;;;;9.52;4.70;;;;;;;8.57;100.00;100767.16;6228078;28;20366;-75
2023/11/15 08:50:23;;;;;;;12.05;4.60;;;;;;;8.66;100.00;100765.91;6228415;28;20054;-74
2023/11/15 08:53:25;;;;;;;9.15;4.30;;;;;;;8.67;100.00;100772.84;6240340;28;20052;-74
2023/11/15 08:56:31;;;;;;;13.07;4.68;;;;;;;8.69;100.00;100778.88;6252802;28;20046;-74
2023/11/15 08:59:35;;;;;;;7.10;4.20;;;;;;;8.70;100.00;100785.81;6241070;28;20434;-74
2023/11/15 09:02:37;;;;;;;6.90;3.08;;;;;;;8.74;100.00;100790.00;6234611;28;20049;-75
2023/11/15 09:05:39;;;;;;;6.90;3.30;;;;;;;8.76;100.00;100785.50;6244509;28;20045;-75
2023/11/15 09:08:41;;;;;;;6.03;2.80;;;;;;;8.82;100.00;100787.88;6252303;28;20049;-75
2023/11/15 09:11:43;;;;;;;6.60;2.90;;;;;;;8.82;100.00;100793.13;6242160;28;20060;-75
2023/11/15 09:14:48;;;;;;;10.23;2.63;;;;;;;8.87;100.00;100789.38;6248011;28;20055;-75
2023/11/15 09:17:50;;;;;;;4.85;2.10;;;;;;;8.83;100.00;100798.28;6238385;28;20552;-75
2023/11/15 09:20:52;;;;;;;5.88;2.75;;;;;;;8.97;100.00;100809.91;6234742;28;20060;-75
2023/11/15 09:23:57;;;;;;;9.10;2.25;;;;;;;9.01;100.00;100819.34;6236162;28;20176;-75
2023/11/15 09:26:59;;;;;;;5.80;2.50;;;;;;;8.97;100.00;100817.78;6269781;22;20028;-78
2023/11/15 09:30:01;;;;;;;8.68;2.50;;;;;;;8.93;100.00;100824.91;6259978;28;20057;-79
2023/11/15 09:33:05;;;;;;;5.50;1.98;;;;;;;8.99;100.00;100826.41;6268628;28;20077;-79
2023/11/15 09:36:10;;;;;;;6.22;3.08;;;;;;;9.03;100.00;100834.06;6269730;28;20049;-77
2023/11/15 09:39:12;;;;;;;7.18;2.60;;;;;;;9.07;100.00;100832.16;6254944;28;20059;-76
2023/11/15 09:42:19;;;;;;;2.72;1.77;;;;;;;9.12;100.00;100833.63;6267411;28;20053;-77
2023/11/15 09:45:23;;;;;;;8.73;2.53;;;;;;;9.18;100.00;100839.53;6276553;28;20045;-78
2023/11/15 09:48:27;;;;;;;3.50;2.00;;;;;;;9.24;100.00;100840.09;6268956;28;20077;-77
2023/11/15 09:51:32;;;;;;;4.75;2.05;;;;;;;9.34;100.00;100840.53;6267950;28;20051;-78
2023/11/15 09:54:33;;;;;;;4.75;2.22;;;;;;;9.38;100.00;100837.69;6276139;28;20053;-77
2023/11/15 09:57:36;;;;;;;4.57;2.50;;;;;;;9.44;100.00;100847.03;6277106;28;20056;-77
2023/11/15 10:00:40;;;;;;;3.75;2.40;;;;;;;9.48;100.00;100847.75;6277456;28;20049;-78
2023/11/15 10:03:42;;;;;;;2.13;1.40;;;;;;;9.39;100.00;100851.63;6276592;28;20048;-78
2023/11/15 10:06:44;;;;;;;3.35;1.13;;;;;;;9.40;100.00;100854.22;6276025;28;20349;-77
2023/11/15 10:09:46;;;;;;;2.47;0.75;;;;;;;9.50;100.00;100838.88;6276155;28;20456;-77
2023/11/15 10:12:50;;;;;;;1.60;0.93;;;;;;;9.57;100.00;100840.28;6275889;28;20056;-77
2023/11/15 10:15:54;;;;;;;1.17;1.08;;;;;;;9.68;100.00;100842.41;6275246;28;20128;-77
2023/11/15 10:18:56;;;;;;;3.53;1.10;;;;;;;9.53;100.00;100836.09;6276052;28;20140;-80
2023/11/15 10:22:00;;;;;;;2.22;1.10;;;;;;;9.58;100.00;100839.38;6267050;28;20052;-77
2023/11/15 10:25:05;;;;;;;5.55;1.73;;;;;;;9.55;100.00;100846.53;6273903;28;20075;-75
2023/11/15 10:28:07;;;;;;;4.38;1.58;;;;;;;9.60;100.00;100841.91;6267163;28;20049;-76
2023/11/15 10:31:14;;;;;;;2.50;1.30;;;;;;;9.56;100.00;100845.59;6267239;28;20468;-76
2023/11/15 10:34:16;;;;;;;6.00;1.48;;;;;;;9.57;100.00;100835.03;6275176;28;20049;-77
2023/11/15 10:37:18;;;;;;;8.68;1.70;;;;;;;9.57;100.00;100832.41;6266923;28;20376;-77
2023/11/15 10:40:21;;;;;;;2.88;1.40;;;;;;;9.68;100.00;100839.78;6275259;28;20059;-77
2023/11/15 10:43:23;;;;;;;4.18;1.45;;;;;;;9.57;100.00;100837.66;6275229;28;20060;-75
2023/11/15 10:46:29;;;;;;;6.57;2.30;;;;;;;9.56;100.00;100843.00;6266763;28;20053;-77
2023/11/15 10:49:35;;;;;;;1.63;1.30;;;;;;;9.61;100.00;100849.72;6275463;28;20103;-76
2023/11/15 10:52:38;;;;;;;3.17;1.02;;;;;;;9.60;100.00;100849.78;6274249;28;20461;-77
2023/11/15 10:55:40;;;;;;;2.97;1.52;;;;;;;9.69;100.00;100856.38;6274789;28;20396;-78
2023/11/15 10:58:45;;;;;;;3.42;1.55;;;;;;;9.69;100.00;100851.13;6274845;28;20049;-76
2023/11/15 11:01:48;;;;;;;2.78;2.00;;;;;;;9.63;100.00;100847.88;6274943;28;20048;-77
2023/11/15 11:04:49;;;;;;;10.70;2.40;;;;;;;9.73;100.00;100837.78;6274928;28;20057;-78
2023/11/15 11:08:00;;;;;;;3.55;2.42;;;;;;;9.76;100.00;100844.66;6266305;28;20461;-77
2023/11/15 11:11:17;;;;;;;2.83;2.20;;;;;;;9.83;100.00;100841.66;6274939;28;20349;-76
2023/11/15 11:14:20;;;;;;;3.25;2.60;;;;;;;9.76;100.00;100840.25;6270072;28;20184;-76
2023/11/15 11:17:33;;;;;;;5.13;2.67;;;;;;;9.76;100.00;100837.63;6270878;28;20057;-77
2023/11/15 11:20:35;;;;;;;7.22;2.95;;;;;;;9.90;100.00;100844.81;6268312;28;20045;-77
2023/11/15 11:23:37;;;;;;;4.10;2.63;;;;;;;9.95;100.00;100837.59;6264446;28;20743;-77
2023/11/15 11:26:38;;;;;;;4.65;2.63;;;;;;;9.97;100.00;100833.09;6261002;28;20052;-79
2023/11/15 11:30:12;;;;;;;5.60;3.17;;;;;;;10.00;100.00;100826.88;6273048;28;20049;-77
2023/11/15 11:33:19;;;;;;;4.28;2.72;;;;;;;10.11;100.00;100833.25;6261297;28;20136;-75
2023/11/15 11:36:49;;;;;;;4.55;2.80;;;;;;;10.24;100.00;100830.91;6274458;28;20060;-78
2023/11/15 11:39:53;;;;;;;3.20;2.22;;;;;;;10.12;100.00;100831.47;6265781;28;20405;-78
2023/11/15 11:43:12;;;;;;;2.22;1.80;;;;;;;10.05;100.00;100828.34;6263727;28;20330;-79
2023/11/15 11:46:16;;;;;;;5.57;1.85;;;;;;;10.08;100.00;100825.56;6269440;28;20131;-79
2023/11/15 11:49:18;;;;;;;2.60;1.90;;;;;;;10.07;100.00;100823.84;6275047;28;20053;-78
2023/11/15 11:52:20;;;;;;;3.95;2.08;;;;;;;10.15;100.00;100832.19;6274794;28;20059;-78
2023/11/15 11:55:22;;;;;;;2.28;1.63;;;;;;;10.21;100.00;100825.78;6274543;28;20441;-78
2023/11/15 11:58:26;;;;;;;3.35;1.70;;;;;;;10.23;100.00;100825.72;6274886;28;20053;-79
2023/11/15 12:01:27;;;;;;;3.38;2.17;;;;;;;10.20;100.00;100831.97;6274450;28;20064;-80
2023/11/15 12:04:30;;;;;;;9.20;2.78;;;;;;;10.19;100.00;100832.88;6267450;28;20053;-78
2023/11/15 12:07:32;;;;;;;4.63;2.50;;;;;;;10.16;100.00;100835.66;6278441;28;20045;-78
2023/11/15 12:10:34;;;;;;;3.85;2.15;;;;;;;10.12;100.00;100834.97;6278611;28;20433;-79
2023/11/15 12:13:43;;;;;;;6.40;2.78;;;;;;;10.09;100.00;100834.28;6260595;28;20050;-79
2023/11/15 12:16:44;;;;;;;;;;;;;;;10.06;100.00;100826.56;6253867;28;20041;-80
2023/11/15 12:19:47;;;;;;;7.32;2.80;;;;;;;10.02;100.00;100836.34;6254392;28;19921;-80
2023/11/15 12:22:49;;;;;;;6.38;2.55;;;;;;;10.02;100.00;100831.09;6254221;28;20076;-81
2023/11/15 12:25:52;;;;;;;7.38;2.67;;;;;;;10.02;100.00;100830.25;6269747;28;20045;-78
2023/11/15 12:28:54;;;;;;;8.45;2.75;;;;;;;10.02;100.00;100828.47;6254682;28;20046;-82
2023/11/15 12:31:59;;;;;;;7.68;2.97;;;;;;;10.09;100.00;100831.66;6255850;28;20049;-79
2023/11/15 12:35:05;;;;;;;10.30;3.40;;;;;;;10.08;100.00;100832.56;6270663;28;20057;-81
2023/11/15 12:38:09;;;;;;;5.80;2.92;;;;;;;10.05;100.00;100846.72;6269395;28;20362;-80
2023/11/15 12:41:11;;;;;;;12.80;3.78;;;;;;;10.01;100.00;100841.69;6269316;28;20050;-81
2023/11/15 12:44:13;;;;;;;8.75;3.35;;;;;;;9.97;100.00;100845.38;6277841;28;20053;-81
2023/11/15 12:47:16;;;;;;;7.70;3.70;;;;;;;9.89;100.00;100838.72;6277815;28;20055;-80
2023/11/15 12:50:21;;;;;;;9.45;3.60;;;;;;;9.82;100.00;100845.22;6274994;28;20052;-82
2023/11/15 12:53:22;;;;;;;13.38;3.65;;;;;;;9.74;100.00;100852.59;6264780;28;20072;-81
2023/11/15 12:56:23;;;;;;;12.18;3.72;;;;;;;9.69;100.00;100853.75;6277750;28;20064;-82
2023/11/15 12:59:33;;;;;;;6.88;3.55;;;;;;;9.63;100.00;100854.91;6277544;28;20045;-80
2023/11/15 13:02:36;;;;;;;;;;;;;;;9.65;100.00;100855.66;6277867;28;20052;-80
2023/11/15 13:05:39;;;;;;;7.47;4.07;;;;;;;9.58;100.00;100862.13;6277432;28;19920;-80
2023/11/15 13:08:43;;;;;;;9.85;3.80;;;;;;;9.57;100.00;100866.53;6275677;28;20059;-80
2023/11/15 13:11:45;;;;;;;6.25;3.47;;;;;;;9.53;100.00;100853.63;6266861;28;20044;-81
2023/11/15 13:14:46;;;;;;;7.20;3.35;;;;;;;9.47;100.00;100867.88;6264385;28;20052;-81
2023/11/15 13:17:48;;;;;;;10.13;4.20;;;;;;;9.39;100.00;100862.13;6251512;28;20049;-79
2023/11/15 13:20:52;;;;;;;9.98;3.38;;;;;;;9.39;100.00;100867.38;6252242;28;20389;-79
2023/11/15 13:23:53;;;;;;;11.48;4.55;;;;;;;9.43;100.00;100873.34;6252475;28;20389;-78
2023/11/15 13:26:55;;;;;;;8.80;3.63;;;;;;;9.39;100.00;100870.00;6258927;28;20041;-80
2023/11/15 13:29:57;;;;;;;4.75;2.72;;;;;;;9.42;100.00;100874.28;6277116;28;20483;-80
2023/11/15 13:32:58;;;;;;;5.82;2.42;;;;;;;9.48;100.00;100869.56;6276625;28;20452;-81
2023/11/15 13:36:01;;;;;;;3.95;1.63;;;;;;;9.57;100.00;100877.00;6268218;28;20053;-81
2023/11/15 13:39:05;;;;;;;4.63;2.00;;;;;;;9.53;100.00;100878.06;6275046;28;20444;-80
2023/11/15 13:42:07;;;;;;;2.00;1.52;;;;;;;9.59;100.00;100877.81;6268901;28;20052;-80
2023/11/15 13:45:10;;;;;;;4.82;1.90;;;;;;;9.64;100.00;100872.34;6251369;28;20438;-79
2023/11/15 13:48:12;;;;;;;2.83;1.45;;;;;;;9.78;100.00;100869.06;6251768;28;20049;-79
2023/11/15 13:51:18;;;;;;;1.40;0.95;;;;;;;9.81;100.00;100867.16;6272740;28;20060;-79
2023/11/15 13:54:20;;;;;;;2.00;1.40;;;;;;;9.94;100.00;100869.16;6267778;28;20132;-82
2023/11/15 13:57:22;;;;;;;4.95;2.08;;;;;;;9.98;100.00;100870.72;6261954;28;20045;-81
2023/11/15 14:00:27;;;;;;;3.13;1.23;;;;;;;9.95;100.00;100871.72;6267866;28;20049;-81
2023/11/15 14:03:29;;;;;;;2.80;0.93;;;;;;;9.94;100.00;100877.88;6268274;28;20041;-80
2023/11/15 14:06:32;;;;;;;2.33;1.45;;;;;;;9.89;100.00;100882.50;6279214;28;20150;-80
2023/11/15 14:09:36;;;;;;;7.15;2.53;;;;;;;9.76;100.00;100878.75;6272136;28;20388;-78